| time (UTC) | temp F | wind direction | speed knots | gust knots | rain 1hr in | rain 24hr in | rain mn in | humidity % | barometer mb |
| 20260507030212 | 35 | 299 | 0.0 | 0.0 | 0.00 | 0.00 | 0.00 | 79 | 1006.2 |
| 20260507025709 | 35 | 299 | 0.0 | 0.0 | 0.00 | 0.00 | 0.00 | 77 | 1006.3 |
| 20260507025206 | 35 | 299 | 0.0 | 0.0 | 0.00 | 0.00 | 0.00 | 77 | 1006.5 |
| 20260507024704 | 35 | 299 | 0.0 | 0.0 | 0.00 | 0.00 | 0.00 | 77 | 1006.5 |
| 20260507024201 | 35 | 299 | 0.0 | 0.0 | 0.00 | 0.00 | 0.00 | 77 | 1006.5 |
| 20260507023656 | 36 | 299 | 0.0 | 0.0 | 0.00 | 0.00 | 0.00 | 76 | 1006.4 |
| 20260507023154 | 36 | 299 | 0.0 | 0.0 | 0.00 | 0.00 | 0.00 | 75 | 1006.4 |
| 20260507022651 | 36 | 299 | 0.0 | 0.0 | 0.00 | 0.00 | 0.00 | 77 | 1006.5 |
| 20260507022146 | 36 | 299 | 0.0 | 0.0 | 0.00 | 0.00 | 0.00 | 77 | 1006.7 |
| 20260507021642 | 36 | 299 | 0.0 | 0.0 | 0.00 | 0.00 | 0.00 | 74 | 1006.4 |
| 20260507021137 | 36 | 299 | 0.0 | 0.0 | 0.00 | 0.00 | 0.00 | 75 | 1006.4 |
| 20260507020636 | 36 | 298 | 0.0 | 0.0 | 0.00 | 0.00 | 0.00 | 76 | 1006.4 |
| 20260507020132 | 36 | 299 | 0.0 | 0.0 | 0.00 | 0.00 | 0.00 | 76 | 1006.5 |
| 20260507015631 | 36 | 302 | 0.0 | 0.0 | 0.00 | 0.00 | 0.00 | 74 | 1006.4 |
| 20260507015128 | 36 | 304 | 0.0 | 0.0 | 0.00 | 0.00 | 0.00 | 75 | 1006.3 |
| 20260507014624 | 36 | 305 | 0.0 | 0.0 | 0.00 | 0.00 | 0.00 | 75 | 1006.2 |
| 20260507014120 | 36 | 304 | 0.0 | 0.0 | 0.00 | 0.00 | 0.00 | 73 | 1006.2 |
| 20260507013617 | 37 | 324 | 0.0 | 0.0 | 0.00 | 0.00 | 0.00 | 73 | 1006.3 |
| 20260507013114 | 37 | 273 | 0.0 | 0.0 | 0.00 | 0.00 | 0.00 | 71 | 1006.3 |
| 20260507012611 | 37 | 250 | 0.0 | 0.0 | 0.00 | 0.00 | 0.00 | 70 | 1006.5 |
| 20260507012107 | 37 | 253 | 0.0 | 0.0 | 0.00 | 0.00 | 0.00 | 71 | 1006.4 |
| 20260507011605 | 37 | 259 | 0.0 | 0.0 | 0.00 | 0.00 | 0.00 | 71 | 1006.3 |
| 20260507011101 | 37 | 331 | 0.0 | 0.0 | 0.00 | 0.00 | 0.00 | 72 | 1006.4 |
| 20260507010556 | 37 | 245 | 0.0 | 0.0 | 0.00 | 0.00 | 0.00 | 71 | 1006.6 |
| 20260507010053 | 37 | 240 | 0.0 | 0.0 | 0.00 | 0.00 | 0.00 | 72 | 1006.5 |
| 20260507005550 | 37 | 273 | 0.0 | 0.0 | 0.00 | 0.00 | 0.00 | 70 | 1006.4 |
| 20260507005046 | 37 | 265 | 0.0 | 0.0 | 0.00 | 0.00 | 0.00 | 71 | 1006.5 |
| 20260507004544 | 37 | 272 | 0.0 | 0.9 | 0.00 | 0.00 | 0.00 | 70 | 1006.4 |
| 20260507004041 | 37 | 256 | 0.0 | 0.0 | 0.00 | 0.00 | 0.00 | 71 | 1006.3 |
| 20260507003536 | 38 | 338 | 3.5 | 5.2 | 0.00 | 0.00 | 0.00 | 69 | 1006.5 |
| 20260507003026 | 38 | 257 | 0.0 | 0.9 | 0.00 | 0.00 | 0.00 | 70 | 1006.5 |
| 20260507002522 | 37 | 3 | 0.0 | 0.0 | 0.00 | 0.00 | 0.00 | 70 | 1006.6 |
| 20260507002019 | 37 | 345 | 0.9 | 0.9 | 0.00 | 0.00 | 0.00 | 68 | 1006.8 |
| 20260507001515 | 38 | 326 | 0.0 | 0.9 | 0.00 | 0.00 | 0.00 | 69 | 1006.8 |
| 20260507001013 | 38 | 207 | 0.9 | 0.9 | 0.00 | 0.00 | 0.00 | 70 | 1006.6 |
| 20260507000509 | 38 | 246 | 0.0 | 0.9 | 0.00 | 0.00 | 0.00 | 69 | 1006.6 |
| 20260507000005 | 38 | 271 | 0.0 | 0.0 | 0.00 | 0.00 | 0.00 | 70 | 1006.6 |
| 20260506235502 | 38 | 293 | 0.9 | 0.9 | 0.00 | 0.00 | 0.00 | 69 | 1006.7 |
| 20260506234958 | 38 | 286 | 0.9 | 0.9 | 0.00 | 0.00 | 0.00 | 68 | 1006.6 |
| 20260506234455 | 38 | 218 | 0.9 | 0.9 | 0.00 | 0.00 | 0.00 | 68 | 1006.6 |
| 20260506233953 | 39 | 287 | 1.7 | 2.6 | 0.00 | 0.00 | 0.00 | 66 | 1006.7 |
| 20260506233449 | 39 | 234 | 0.9 | 1.7 | 0.00 | 0.00 | 0.00 | 68 | 1006.7 |
| 20260506232945 | 39 | 245 | 0.9 | 1.7 | 0.00 | 0.00 | 0.00 | 66 | 1006.7 |
| 20260506232441 | 39 | 254 | 0.0 | 0.9 | 0.00 | 0.00 | 0.00 | 67 | 1006.8 |
| 20260506231932 | 38 | 268 | 1.7 | 1.7 | 0.00 | 0.00 | 0.00 | 67 | 1006.7 |
| 20260506231430 | 38 | 293 | 0.0 | 0.9 | 0.00 | 0.00 | 0.00 | 68 | 1007.0 |
| 20260506230926 | 39 | 292 | 0.9 | 1.7 | 0.00 | 0.00 | 0.00 | 66 | 1006.7 |
| 20260506230423 | 39 | 256 | 0.9 | 1.7 | 0.00 | 0.00 | 0.00 | 68 | 1006.8 |
| 20260506225919 | 39 | 324 | 0.9 | 0.9 | 0.00 | 0.00 | 0.00 | 68 | 1006.9 |
| 20260506225416 | 39 | 220 | 0.9 | 0.9 | 0.00 | 0.00 | 0.00 | 69 | 1006.9 |
| 20260506224908 | 39 | 333 | 0.9 | 1.7 | 0.00 | 0.00 | 0.00 | 69 | 1007.0 |
| 20260506224405 | 39 | 247 | 0.0 | 0.0 | 0.00 | 0.00 | 0.00 | 70 | 1007.1 |
| 20260506223901 | 39 | 210 | 1.7 | 2.6 | 0.00 | 0.00 | 0.00 | 66 | 1006.8 |
| 20260506223357 | 39 | 290 | 1.7 | 2.6 | 0.00 | 0.00 | 0.00 | 65 | 1006.8 |
| 20260506222854 | 39 | 272 | 0.0 | 0.0 | 0.00 | 0.00 | 0.00 | 67 | 1006.8 |
| 20260506222350 | 39 | 200 | 0.9 | 0.9 | 0.00 | 0.00 | 0.00 | 67 | 1006.8 |
| 20260506221848 | 39 | 274 | 0.0 | 0.9 | 0.00 | 0.00 | 0.00 | 67 | 1006.8 |
| 20260506221345 | 39 | 227 | 0.9 | 0.9 | 0.00 | 0.00 | 0.00 | 64 | 1006.9 |
| 20260506220842 | 40 | 247 | 0.9 | 1.7 | 0.00 | 0.00 | 0.00 | 63 | 1006.8 |
| 20260506220338 | 40 | 214 | 0.9 | 1.7 | 0.00 | 0.00 | 0.00 | 64 | 1006.7 |
| 20260506215834 | 39 | 285 | 0.9 | 1.7 | 0.00 | 0.00 | 0.00 | 65 | 1006.9 |
| 20260506215330 | 39 | 294 | 4.3 | 5.2 | 0.00 | 0.00 | 0.00 | 64 | 1006.8 |
| 20260506214821 | 39 | 307 | 1.7 | 2.6 | 0.00 | 0.00 | 0.00 | 63 | 1006.7 |
| 20260506214317 | 39 | 284 | 0.9 | 1.7 | 0.00 | 0.00 | 0.00 | 60 | 1006.9 |
| 20260506213816 | 40 | 179 | 0.9 | 0.9 | 0.00 | 0.00 | 0.00 | 62 | 1006.6 |
| 20260506213313 | 40 | 330 | 3.5 | 5.2 | 0.00 | 0.00 | 0.00 | 62 | 1006.8 |
| 20260506212810 | 40 | 297 | 0.9 | 0.9 | 0.00 | 0.00 | 0.00 | 64 | 1006.8 |
| 20260506212307 | 39 | 240 | 1.7 | 1.7 | 0.00 | 0.00 | 0.00 | 63 | 1006.6 |
| 20260506211800 | 39 | 189 | 0.9 | 0.9 | 0.00 | 0.00 | 0.00 | 63 | 1006.9 |
| 20260506211257 | 39 | 218 | 0.0 | 0.9 | 0.00 | 0.00 | 0.00 | 63 | 1006.9 |
| 20260506210754 | 39 | 253 | 1.7 | 2.6 | 0.00 | 0.00 | 0.00 | 62 | 1006.8 |
| 20260506210250 | 39 | 232 | 0.9 | 1.7 | 0.00 | 0.00 | 0.00 | 62 | 1006.9 |
| 20260506205748 | 39 | 249 | 0.9 | 1.7 | 0.00 | 0.00 | 0.00 | 62 | 1006.9 |
| 20260506205243 | 40 | 4 | 0.9 | 2.6 | 0.00 | 0.00 | 0.00 | 61 | 1006.7 |
| 20260506204740 | 40 | 215 | 1.7 | 2.6 | 0.00 | 0.00 | 0.00 | 61 | 1006.6 |
| 20260506204238 | 40 | 245 | 0.0 | 0.0 | 0.00 | 0.00 | 0.00 | 62 | 1006.9 |
| 20260506203736 | 39 | 252 | 1.7 | 2.6 | 0.00 | 0.00 | 0.00 | 61 | 1006.8 |
| 20260506203232 | 39 | 267 | 1.7 | 2.6 | 0.00 | 0.00 | 0.00 | 62 | 1006.9 |
| 20260506202730 | 40 | 284 | 0.0 | 0.9 | 0.00 | 0.00 | 0.00 | 62 | 1006.9 |
| 20260506202226 | 40 | 12 | 0.9 | 1.7 | 0.00 | 0.00 | 0.00 | 60 | 1006.8 |
| 20260506201723 | 40 | 261 | 0.9 | 0.9 | 0.00 | 0.00 | 0.00 | 62 | 1006.8 |
| 20260506201220 | 41 | 263 | 0.0 | 0.0 | 0.00 | 0.00 | 0.00 | 61 | 1006.9 |
| 20260506200717 | 40 | 127 | 0.9 | 0.9 | 0.00 | 0.00 | 0.00 | 61 | 1006.9 |
| 20260506200214 | 41 | 314 | 1.7 | 2.6 | 0.00 | 0.00 | 0.00 | 59 | 1006.7 |
| 20260506195710 | 40 | 249 | 0.0 | 0.0 | 0.00 | 0.00 | 0.00 | 61 | 1006.8 |
| 20260506195207 | 40 | 336 | 0.9 | 1.7 | 0.00 | 0.00 | 0.00 | 62 | 1006.9 |
| 20260506194659 | 40 | 6 | 1.7 | 1.7 | 0.00 | 0.00 | 0.00 | 60 | 1006.8 |
| 20260506194155 | 39 | 232 | 1.7 | 2.6 | 0.00 | 0.00 | 0.00 | 60 | 1006.9 |
| 20260506193653 | 40 | 249 | 0.9 | 0.9 | 0.00 | 0.00 | 0.00 | 60 | 1006.9 |
| 20260506193149 | 40 | 237 | 0.9 | 1.7 | 0.00 | 0.00 | 0.00 | 59 | 1006.8 |
| 20260506192645 | 40 | 234 | 0.0 | 0.0 | 0.00 | 0.00 | 0.00 | 60 | 1006.9 |
| 20260506192141 | 40 | 334 | 1.7 | 2.6 | 0.00 | 0.00 | 0.00 | 60 | 1006.9 |
| 20260506191634 | 40 | 263 | 0.9 | 1.7 | 0.00 | 0.00 | 0.00 | 60 | 1006.6 |
| 20260506191130 | 40 | 272 | 2.6 | 6.1 | 0.00 | 0.00 | 0.00 | 62 | 1006.8 |
| 20260506190627 | 40 | 320 | 1.7 | 1.7 | 0.00 | 0.00 | 0.00 | 60 | 1006.9 |
| 20260506190124 | 40 | 290 | 1.7 | 1.7 | 0.00 | 0.00 | 0.00 | 59 | 1006.7 |
| 20260506185621 | 40 | 200 | 0.9 | 0.9 | 0.00 | 0.00 | 0.00 | 61 | 1006.5 |
| 20260506185117 | 39 | 219 | 0.9 | 1.7 | 0.00 | 0.00 | 0.00 | 61 | 1006.7 |
| 20260506184614 | 39 | 197 | 2.6 | 3.5 | 0.00 | 0.00 | 0.00 | 61 | 1006.8 |
| 20260506184112 | 40 | 305 | 0.0 | 0.9 | 0.00 | 0.00 | 0.00 | 61 | 1006.8 |
| 20260506183608 | 40 | 323 | 2.6 | 3.5 | 0.00 | 0.00 | 0.00 | 60 | 1006.6 |
| 20260506183104 | 40 | 15 | 0.0 | 0.9 | 0.00 | 0.00 | 0.00 | 61 | 1006.9 |
| 20260506182602 | 39 | 230 | 1.7 | 1.7 | 0.00 | 0.00 | 0.00 | 60 | 1006.7 |
| 20260506182059 | 40 | 238 | 2.6 | 5.2 | 0.00 | 0.00 | 0.00 | 62 | 1006.7 |
| 20260506181556 | 40 | 296 | 0.0 | 0.9 | 0.00 | 0.00 | 0.00 | 60 | 1006.6 |
| 20260506181052 | 39 | 284 | 0.9 | 1.7 | 0.00 | 0.00 | 0.00 | 63 | 1006.7 |
| 20260506180544 | 39 | 283 | 0.0 | 0.9 | 0.00 | 0.00 | 0.00 | 60 | 1006.9 |
| 20260506180041 | 38 | 37 | 0.9 | 1.7 | 0.00 | 0.00 | 0.00 | 63 | 1006.9 |
| 20260506175537 | 38 | 297 | 4.3 | 6.1 | 0.00 | 0.00 | 0.00 | 62 | 1006.8 |
| 20260506175033 | 39 | 206 | 0.0 | 0.9 | 0.00 | 0.00 | 0.00 | 62 | 1006.9 |
| 20260506174532 | 38 | 296 | 0.9 | 0.9 | 0.00 | 0.00 | 0.00 | 63 | 1007.0 |
| 20260506174028 | 39 | 228 | 1.7 | 2.6 | 0.00 | 0.00 | 0.00 | 61 | 1006.9 |
| 20260506173526 | 39 | 207 | 0.0 | 0.9 | 0.00 | 0.00 | 0.00 | 62 | 1006.9 |
| 20260506173022 | 39 | 156 | 0.0 | 0.9 | 0.00 | 0.00 | 0.00 | 61 | 1006.9 |
| 20260506172519 | 39 | 276 | 0.9 | 1.7 | 0.00 | 0.00 | 0.00 | 62 | 1006.9 |
| 20260506172010 | 39 | 285 | 0.0 | 0.0 | 0.00 | 0.00 | 0.00 | 63 | 1006.9 |
| 20260506171507 | 39 | 333 | 5.2 | 6.1 | 0.00 | 0.00 | 0.00 | 62 | 1007.0 |
| 20260506171004 | 39 | 255 | 0.0 | 0.9 | 0.00 | 0.00 | 0.00 | 61 | 1006.9 |
| 20260506170501 | 39 | 279 | 0.9 | 1.7 | 0.00 | 0.00 | 0.00 | 62 | 1006.9 |
| 20260506165954 | 39 | 315 | 1.7 | 1.7 | 0.00 | 0.00 | 0.00 | 60 | 1006.9 |
| 20260506165453 | 39 | 236 | 1.7 | 2.6 | 0.00 | 0.00 | 0.00 | 61 | 1007.1 |
| 20260506164948 | 38 | 251 | 0.0 | 0.0 | 0.00 | 0.00 | 0.00 | 62 | 1006.9 |
| 20260506164445 | 38 | 347 | 4.3 | 6.1 | 0.00 | 0.00 | 0.00 | 63 | 1007.1 |
| 20260506163943 | 38 | 355 | 1.7 | 2.6 | 0.00 | 0.00 | 0.00 | 62 | 1007.0 |
| 20260506163438 | 39 | 245 | 2.6 | 5.2 | 0.00 | 0.00 | 0.00 | 62 | 1007.0 |
| 20260506162932 | 38 | 169 | 4.3 | 7.0 | 0.00 | 0.00 | 0.00 | 63 | 1007.0 |
| 20260506162430 | 39 | 274 | 0.0 | 0.0 | 0.00 | 0.00 | 0.00 | 64 | 1007.0 |
| 20260506161927 | 38 | 239 | 2.6 | 3.5 | 0.00 | 0.00 | 0.00 | 65 | 1006.8 |
| 20260506161425 | 38 | 17 | 3.5 | 7.0 | 0.00 | 0.00 | 0.00 | 64 | 1007.0 |
| 20260506160917 | 37 | 247 | 1.7 | 1.7 | 0.00 | 0.00 | 0.00 | 65 | 1006.9 |
| 20260506160414 | 37 | 258 | 0.9 | 0.9 | 0.00 | 0.00 | 0.00 | 64 | 1007.2 |
| 20260506155912 | 38 | 259 | 1.7 | 2.6 | 0.00 | 0.00 | 0.00 | 63 | 1006.9 |
| 20260506155408 | 38 | 276 | 0.9 | 0.9 | 0.00 | 0.00 | 0.00 | 65 | 1007.1 |
| 20260506153525 | 37 | 256 | 0.0 | 0.9 | 0.00 | 0.00 | 0.00 | 64 | 1006.9 |
| 20260506153022 | 37 | 295 | 2.6 | 3.5 | 0.00 | 0.00 | 0.00 | 65 | 1006.9 |
| 20260506152519 | 37 | 308 | 0.9 | 1.7 | 0.00 | 0.00 | 0.00 | 67 | 1006.7 |
| 20260506152017 | 37 | 0 | 2.6 | 5.2 | 0.00 | 0.00 | 0.00 | 66 | 1006.8 |
| 20260506151514 | 36 | 278 | 0.9 | 0.9 | 0.00 | 0.00 | 0.00 | 67 | 1007.0 |
| 20260506151012 | 36 | 284 | 1.7 | 3.5 | 0.00 | 0.00 | 0.00 | 66 | 1006.6 |
| 20260506150508 | 36 | 330 | 3.5 | 3.5 | 0.00 | 0.00 | 0.00 | 68 | 1006.9 |
| 20260506150005 | 37 | 199 | 0.9 | 0.9 | 0.00 | 0.00 | 0.00 | 68 | 1006.9 |
| 20260506145501 | 37 | 288 | 0.9 | 1.7 | 0.00 | 0.00 | 0.00 | 69 | 1006.7 |
| 20260506144959 | 37 | 225 | 1.7 | 2.6 | 0.00 | 0.00 | 0.00 | 67 | 1007.0 |
| 20260506144455 | 36 | 225 | 0.9 | 2.6 | 0.00 | 0.00 | 0.00 | 70 | 1007.0 |
| 20260506143953 | 35 | 344 | 1.7 | 1.7 | 0.00 | 0.00 | 0.00 | 70 | 1006.8 |
| 20260506143450 | 35 | 122 | 1.7 | 3.5 | 0.00 | 0.00 | 0.00 | 70 | 1007.1 |
| 20260506142949 | 34 | 217 | 1.7 | 1.7 | 0.00 | 0.00 | 0.00 | 73 | 1007.0 |
| 20260506142446 | 34 | 249 | 0.9 | 0.9 | 0.00 | 0.00 | 0.00 | 73 | 1006.9 |
| 20260506141944 | 35 | 242 | 0.9 | 1.7 | 0.00 | 0.00 | 0.00 | 73 | 1007.0 |
| 20260506141441 | 35 | 282 | 0.0 | 0.9 | 0.00 | 0.00 | 0.00 | 72 | 1006.8 |
| 20260506140940 | 34 | 169 | 0.9 | 1.7 | 0.00 | 0.00 | 0.00 | 74 | 1007.0 |
| 20260506140436 | 34 | 273 | 0.0 | 0.9 | 0.00 | 0.00 | 0.00 | 74 | 1006.8 |
| 20260506135933 | 34 | 271 | 0.9 | 0.9 | 0.00 | 0.00 | 0.00 | 75 | 1006.7 |
| 20260506135431 | 34 | 221 | 1.7 | 3.5 | 0.00 | 0.00 | 0.00 | 74 | 1006.8 |
| 20260506134927 | 34 | 205 | 3.5 | 3.5 | 0.00 | 0.00 | 0.00 | 74 | 1006.9 |
| 20260506134423 | 33 | 198 | 0.9 | 1.7 | 0.00 | 0.00 | 0.00 | 76 | 1006.8 |
| 20260506133920 | 33 | 335 | 0.0 | 0.9 | 0.00 | 0.00 | 0.00 | 76 | 1006.8 |
| 20260506133417 | 33 | 240 | 3.5 | 3.5 | 0.00 | 0.00 | 0.00 | 77 | 1006.8 |
| 20260506132913 | 33 | 239 | 0.0 | 0.0 | 0.00 | 0.00 | 0.00 | 77 | 1006.9 |
| 20260506132411 | 33 | 271 | 0.0 | 0.0 | 0.00 | 0.00 | 0.00 | 77 | 1006.9 |
| 20260506131908 | 33 | 265 | 0.0 | 0.0 | 0.00 | 0.00 | 0.00 | 78 | 1006.8 |
| 20260506131404 | 32 | 223 | 0.9 | 1.7 | 0.00 | 0.00 | 0.00 | 77 | 1006.7 |
| 20260506130902 | 32 | 272 | 0.0 | 0.0 | 0.00 | 0.00 | 0.00 | 78 | 1007.0 |
| 20260506130358 | 32 | 261 | 0.0 | 0.0 | 0.00 | 0.00 | 0.00 | 79 | 1006.7 |
| 20260506125856 | 32 | 189 | 0.0 | 0.0 | 0.00 | 0.00 | 0.00 | 79 | 1006.7 |
| 20260506125354 | 32 | 300 | 0.9 | 0.9 | 0.00 | 0.00 | 0.00 | 79 | 1006.7 |
| 20260506124852 | 32 | 326 | 0.9 | 1.7 | 0.00 | 0.00 | 0.00 | 79 | 1007.0 |
| 20260506124349 | 32 | 235 | 0.9 | 0.9 | 0.00 | 0.00 | 0.00 | 79 | 1006.6 |
| 20260506123847 | 32 | 335 | 0.0 | 0.0 | 0.00 | 0.00 | 0.00 | 79 | 1006.7 |
| 20260506123345 | 32 | 215 | 0.0 | 0.0 | 0.00 | 0.00 | 0.00 | 79 | 1006.4 |
| 20260506122842 | 32 | 271 | 0.0 | 0.0 | 0.00 | 0.00 | 0.00 | 79 | 1006.6 |
| 20260506122338 | 32 | 237 | 1.7 | 1.7 | 0.00 | 0.00 | 0.00 | 79 | 1006.5 |
| 20260506121837 | 31 | 325 | 0.0 | 0.9 | 0.00 | 0.00 | 0.00 | 79 | 1006.4 |
| 20260506121333 | 31 | 259 | 0.0 | 0.9 | 0.00 | 0.00 | 0.00 | 79 | 1006.4 |
| 20260506120831 | 31 | 269 | 0.9 | 1.7 | 0.00 | 0.00 | 0.00 | 79 | 1006.3 |
| 20260506120328 | 31 | 259 | 0.0 | 0.0 | 0.00 | 0.00 | 0.00 | 79 | 1006.3 |
| 20260506115825 | 31 | 209 | 0.0 | 0.0 | 0.00 | 0.00 | 0.00 | 78 | 1006.3 |
| 20260506115324 | 31 | 251 | 0.9 | 1.7 | 0.00 | 0.00 | 0.00 | 79 | 1006.3 |
| 20260506114821 | 31 | 344 | 0.0 | 0.0 | 0.00 | 0.00 | 0.00 | 79 | 1006.1 |
| 20260506114319 | 31 | 296 | 0.0 | 0.0 | 0.00 | 0.00 | 0.00 | 79 | 1006.2 |
| 20260506113817 | 31 | 281 | 0.0 | 0.9 | 0.00 | 0.00 | 0.00 | 79 | 1006.0 |
| 20260506113314 | 31 | 243 | 0.0 | 0.9 | 0.00 | 0.00 | 0.00 | 79 | 1006.1 |
| 20260506112811 | 31 | 176 | 0.0 | 0.0 | 0.00 | 0.00 | 0.00 | 79 | 1006.0 |
| 20260506112308 | 31 | 241 | 0.9 | 1.7 | 0.00 | 0.00 | 0.00 | 78 | 1006.1 |
| 20260506111806 | 31 | 301 | 0.0 | 0.9 | 0.00 | 0.00 | 0.00 | 79 | 1006.0 |
| 20260506111304 | 31 | 239 | 1.7 | 1.7 | 0.00 | 0.00 | 0.00 | 78 | 1005.9 |
| 20260506110801 | 31 | 331 | 0.9 | 1.7 | 0.00 | 0.00 | 0.00 | 78 | 1005.8 |
| 20260506110258 | 31 | 280 | 0.0 | 0.9 | 0.00 | 0.00 | 0.00 | 78 | 1006.0 |
| 20260506105754 | 31 | 214 | 0.0 | 0.9 | 0.00 | 0.00 | 0.00 | 78 | 1005.9 |
| 20260506105251 | 31 | 226 | 0.0 | 0.9 | 0.00 | 0.00 | 0.00 | 77 | 1005.9 |
| 20260506104749 | 31 | 294 | 0.0 | 0.0 | 0.00 | 0.00 | 0.00 | 79 | 1005.8 |
| 20260506104246 | 31 | 334 | 3.5 | 6.1 | 0.00 | 0.00 | 0.00 | 79 | 1005.7 |
| 20260506103744 | 31 | 221 | 1.7 | 1.7 | 0.00 | 0.00 | 0.00 | 78 | 1005.7 |
| 20260506103241 | 31 | 230 | 1.7 | 1.7 | 0.00 | 0.00 | 0.00 | 78 | 1005.8 |
| 20260506102738 | 31 | 280 | 0.0 | 0.0 | 0.00 | 0.00 | 0.00 | 79 | 1005.8 |
| 20260506102236 | 31 | 277 | 0.9 | 0.9 | 0.00 | 0.00 | 0.00 | 79 | 1005.7 |
| 20260506101733 | 30 | 281 | 0.0 | 0.0 | 0.00 | 0.00 | 0.00 | 80 | 1005.7 |
| 20260506101229 | 30 | 292 | 0.0 | 0.0 | 0.00 | 0.00 | 0.00 | 79 | 1005.7 |
| 20260506100727 | 30 | 271 | 0.0 | 0.0 | 0.00 | 0.00 | 0.00 | 79 | 1006.0 |
| 20260506100225 | 30 | 233 | 0.0 | 0.0 | 0.00 | 0.00 | 0.00 | 79 | 1005.7 |
| 20260506095724 | 30 | 281 | 0.0 | 0.0 | 0.00 | 0.00 | 0.00 | 80 | 1005.9 |
| 20260506095220 | 30 | 292 | 0.0 | 0.0 | 0.00 | 0.00 | 0.00 | 79 | 1005.7 |
| 20260506094717 | 30 | 299 | 0.0 | 0.0 | 0.00 | 0.00 | 0.00 | 80 | 1005.7 |
| 20260506094215 | 30 | 298 | 0.0 | 0.0 | 0.00 | 0.00 | 0.00 | 80 | 1005.9 |
| 20260506093714 | 30 | 312 | 0.0 | 0.0 | 0.00 | 0.00 | 0.00 | 80 | 1005.9 |
| 20260506093210 | 30 | 313 | 0.0 | 0.0 | 0.00 | 0.00 | 0.00 | 80 | 1005.8 |
| 20260506092708 | 30 | 261 | 0.0 | 0.0 | 0.00 | 0.00 | 0.00 | 79 | 1005.8 |
| 20260506092205 | 30 | 284 | 0.0 | 0.0 | 0.00 | 0.00 | 0.00 | 79 | 1005.8 |
| 20260506091703 | 30 | 269 | 0.0 | 0.0 | 0.00 | 0.00 | 0.00 | 79 | 1005.8 |
| 20260506091200 | 30 | 268 | 0.0 | 0.0 | 0.00 | 0.00 | 0.00 | 80 | 1005.8 |
| 20260506090658 | 30 | 288 | 0.0 | 0.0 | 0.00 | 0.00 | 0.00 | 78 | 1005.8 |
| 20260506090154 | 30 | 286 | 0.0 | 0.0 | 0.00 | 0.00 | 0.00 | 80 | 1005.9 |
| 20260506085651 | 30 | 270 | 0.0 | 0.0 | 0.00 | 0.00 | 0.00 | 78 | 1005.8 |
| 20260506085147 | 30 | 267 | 0.9 | 1.7 | 0.00 | 0.00 | 0.00 | 78 | 1005.9 |
| 20260506084644 | 30 | 331 | 0.9 | 1.7 | 0.00 | 0.00 | 0.00 | 79 | 1005.8 |
| 20260506084141 | 30 | 300 | 0.0 | 0.0 | 0.00 | 0.00 | 0.00 | 79 | 1005.9 |
| 20260506083638 | 30 | 285 | 0.0 | 0.0 | 0.00 | 0.00 | 0.00 | 80 | 1005.8 |
| 20260506083136 | 30 | 326 | 0.0 | 0.9 | 0.00 | 0.00 | 0.00 | 80 | 1005.9 |
| 20260506082632 | 30 | 304 | 0.0 | 0.0 | 0.00 | 0.00 | 0.00 | 80 | 1006.0 |
| 20260506082128 | 30 | 264 | 0.0 | 0.0 | 0.00 | 0.00 | 0.00 | 80 | 1005.6 |
| 20260506081626 | 29 | 341 | 0.9 | 0.9 | 0.00 | 0.00 | 0.00 | 79 | 1005.9 |
| 20260506081123 | 29 | 270 | 0.0 | 0.9 | 0.00 | 0.00 | 0.00 | 81 | 1005.7 |
| 20260506080621 | 29 | 272 | 0.0 | 0.0 | 0.00 | 0.00 | 0.00 | 81 | 1006.0 |
| 20260506080117 | 29 | 269 | 0.0 | 0.0 | 0.00 | 0.00 | 0.00 | 81 | 1005.8 |
| 20260506073101 | 29 | 256 | 0.0 | 0.0 | 0.00 | 0.00 | 0.00 | 80 | 1005.8 |
| 20260506072558 | 30 | 297 | 0.0 | 0.9 | 0.00 | 0.00 | 0.00 | 78 | 1006.0 |
| 20260506072056 | 30 | 357 | 0.9 | 0.9 | 0.00 | 0.00 | 0.00 | 78 | 1005.9 |
| 20260506071553 | 30 | 265 | 0.9 | 1.7 | 0.00 | 0.00 | 0.00 | 79 | 1005.8 |
| 20260506071051 | 30 | 263 | 0.0 | 0.9 | 0.00 | 0.00 | 0.00 | 78 | 1005.9 |
| 20260506070548 | 30 | 304 | 0.0 | 0.0 | 0.00 | 0.00 | 0.00 | 77 | 1006.0 |
| 20260506062022 | 30 | 268 | 0.0 | 0.0 | 0.00 | 0.00 | 0.00 | 76 | 1005.8 |
| 20260506061517 | 30 | 262 | 0.0 | 0.9 | 0.00 | 0.00 | 0.00 | 77 | 1006.0 |
| 20260506061015 | 30 | 359 | 0.0 | 0.9 | 0.00 | 0.00 | 0.00 | 77 | 1006.0 |
| 20260506060514 | 30 | 287 | 0.9 | 0.9 | 0.00 | 0.00 | 0.00 | 76 | 1006.0 |
| 20260506050943 | 32 | 288 | 0.9 | 1.7 | 0.00 | 0.00 | 0.00 | 76 | 1005.9 |
| 20260506050440 | 32 | 249 | 0.0 | 0.9 | 0.00 | 0.00 | 0.00 | 76 | 1005.8 |
| 20260506044930 | 33 | 241 | 2.6 | 2.6 | 0.00 | 0.00 | 0.00 | 74 | 1006.0 |
| 20260506044429 | 33 | 71 | 0.0 | 0.0 | 0.00 | 0.00 | 0.00 | 75 | 1005.8 |
| 20260506043925 | 33 | 205 | 0.9 | 1.7 | 0.00 | 0.00 | 0.00 | 75 | 1005.9 |
| 20260506043423 | 33 | 224 | 0.0 | 0.0 | 0.00 | 0.00 | 0.00 | 74 | 1005.9 |
| 20260506042920 | 34 | 212 | 2.6 | 3.5 | 0.00 | 0.00 | 0.00 | 74 | 1005.9 |
| 20260506042420 | 34 | 294 | 0.0 | 0.9 | 0.00 | 0.00 | 0.00 | 74 | 1005.8 |
| 20260506041917 | 34 | 236 | 0.9 | 1.7 | 0.00 | 0.00 | 0.00 | 73 | 1005.6 |
| 20260506041415 | 34 | 224 | 0.0 | 0.9 | 0.00 | 0.00 | 0.00 | 72 | 1005.8 |
| 20260506040912 | 34 | 334 | 1.7 | 2.6 | 0.00 | 0.00 | 0.00 | 71 | 1005.8 |
| 20260506040409 | 34 | 282 | 0.9 | 0.9 | 0.00 | 0.00 | 0.00 | 71 | 1005.7 |
| 20260506035905 | 34 | 288 | 0.0 | 0.0 | 0.00 | 0.00 | 0.00 | 71 | 1005.8 |
| 20260506035403 | 34 | 288 | 0.9 | 1.7 | 0.00 | 0.00 | 0.00 | 69 | 1005.9 |
| 20260506034859 | 34 | 301 | 0.0 | 0.0 | 0.00 | 0.00 | 0.00 | 69 | 1005.9 |
| 20260506034358 | 34 | 199 | 0.0 | 0.9 | 0.00 | 0.00 | 0.00 | 68 | 1005.8 |
| 20260506033854 | 34 | 256 | 0.0 | 0.9 | 0.00 | 0.00 | 0.00 | 68 | 1005.6 |
| 20260506033351 | 34 | 289 | 0.0 | 0.9 | 0.00 | 0.00 | 0.00 | 68 | 1005.6 |
| 20260506032848 | 34 | 190 | 0.0 | 0.0 | 0.00 | 0.00 | 0.00 | 68 | 1005.7 |
| 20260506032344 | 34 | 333 | 0.0 | 0.9 | 0.00 | 0.00 | 0.00 | 68 | 1005.6 |
| 20260506031841 | 34 | 274 | 0.0 | 0.0 | 0.00 | 0.00 | 0.00 | 68 | 1005.7 |
| 20260506031339 | 35 | 295 | 0.0 | 0.9 | 0.00 | 0.00 | 0.00 | 67 | 1005.6 |
| 20260506030836 | 35 | 228 | 0.9 | 1.7 | 0.00 | 0.00 | 0.00 | 66 | 1005.6 |
| 20260506030334 | 35 | 6 | 1.7 | 3.5 | 0.00 | 0.00 | 0.00 | 66 | 1005.6 |